createdAt,value
2019-03-05T00:04:38.079Z,85.01
2019-03-05T00:09:56.773Z,83.95
2019-03-05T00:15:18.129Z,83.49
2019-03-05T00:20:36.679Z,82.56
2019-03-05T00:25:55.275Z,83.13
2019-03-05T00:31:20.044Z,82.46
2019-03-05T00:36:41.742Z,82.88
2019-03-05T00:42:06.315Z,82.83
2019-03-05T00:47:43.427Z,82.62
2019-03-05T00:53:16.923Z,83.19
2019-03-05T00:58:47.275Z,83.26
2019-03-05T01:04:24.067Z,83.21
2019-03-05T01:09:42.621Z,83.15
2019-03-05T01:15:01.235Z,83.13
2019-03-05T01:20:19.802Z,82.70
2019-03-05T01:25:38.547Z,82.20
2019-03-05T01:31:11.041Z,82.59
2019-03-05T01:36:31.304Z,82.49
2019-03-05T01:41:50.027Z,82.55
2019-03-05T01:47:09.051Z,82.00
2019-03-05T01:52:27.677Z,80.75
2019-03-05T01:57:46.294Z,81.41
2019-03-05T02:03:05.993Z,81.07
2019-03-05T02:08:25.181Z,80.43
2019-03-05T02:13:43.800Z,80.38
2019-03-05T02:19:34.272Z,80.01
2019-03-05T02:25:01.854Z,79.83
2019-03-05T02:30:38.853Z,80.52
2019-03-05T02:36:09.344Z,81.81
2019-03-05T02:41:30.862Z,82.69
2019-03-05T02:47:10.348Z,83.03
2019-03-05T02:52:34.478Z,83.40
2019-03-05T02:57:51.838Z,83.93
2019-03-05T03:03:17.803Z,83.75
2019-03-05T03:08:36.353Z,83.63
2019-03-05T03:13:54.946Z,83.84
2019-03-05T03:19:13.482Z,83.84
2019-03-05T03:24:32.391Z,83.81
2019-03-05T03:29:50.939Z,83.69
2019-03-05T03:35:11.472Z,83.07
2019-03-05T03:40:30.111Z,83.61
2019-03-05T03:45:48.728Z,83.85
2019-03-05T03:51:07.422Z,84.06
2019-03-05T03:56:26.137Z,84.02
2019-03-05T04:01:44.761Z,83.33
2019-03-05T04:07:03.372Z,83.33
2019-03-05T04:12:21.978Z,83.78
2019-03-05T04:17:40.725Z,83.38
2019-03-05T04:22:59.340Z,83.70
2019-03-05T04:28:18.178Z,83.50
2019-03-05T04:33:36.779Z,83.54
2019-03-05T04:38:55.312Z,83.55
2019-03-05T04:44:15.560Z,83.54
2019-03-05T04:49:38.279Z,83.04
2019-03-05T04:54:56.913Z,83.81
2019-03-05T05:00:15.794Z,84.31
2019-03-05T05:05:34.460Z,84.53
2019-03-05T05:10:53.039Z,85.28
2019-03-05T05:16:11.747Z,84.91
2019-03-05T05:21:30.391Z,85.14
2019-03-05T05:26:48.968Z,84.63
2019-03-05T05:32:07.428Z,83.93
2019-03-05T05:37:25.969Z,84.39
2019-03-05T05:42:45.221Z,83.99
2019-03-05T05:48:05.275Z,83.42
2019-03-05T05:53:23.900Z,83.50
2019-03-05T05:58:42.513Z,82.75
2019-03-05T06:04:01.173Z,83.01
2019-03-05T06:09:19.747Z,82.14
2019-03-05T06:14:38.334Z,82.51
2019-03-05T06:19:56.873Z,82.62
2019-03-05T06:25:15.888Z,83.05
2019-03-05T06:30:37.524Z,83.22
2019-03-05T06:35:56.087Z,83.65
2019-03-05T06:41:14.613Z,84.44
2019-03-05T06:46:33.223Z,85.39
2019-03-05T06:51:51.804Z,86.69
2019-03-05T06:57:10.370Z,88.38
2019-03-05T07:02:29.095Z,89.81
2019-03-05T07:07:47.658Z,90.45
2019-03-05T07:13:07.943Z,90.74
2019-03-05T07:18:29.782Z,91.02
2019-03-05T07:24:14.278Z,90.77
2019-03-05T07:29:33.163Z,94.07
2019-03-05T07:34:52.591Z,94.43
2019-03-05T07:40:12.543Z,94.48
2019-03-05T07:45:31.164Z,95.25
2019-03-05T07:50:49.702Z,95.24
2019-03-05T07:56:08.357Z,96.08
2019-03-05T08:01:27.013Z,95.56
2019-03-05T08:06:46.025Z,96.22
2019-03-05T08:12:28.690Z,96.86
2019-03-05T08:17:47.400Z,96.51
2019-03-05T08:23:06.052Z,96.62
2019-03-05T08:28:24.913Z,96.49
2019-03-05T08:33:43.548Z,97.42
2019-03-05T08:39:07.028Z,97.69
2019-03-05T08:44:25.568Z,97.50
2019-03-05T08:49:44.198Z,97.90
2019-03-05T08:55:02.659Z,97.82
2019-03-05T09:01:00.298Z,97.83
2019-03-05T09:06:19.113Z,97.05
2019-03-05T09:11:37.893Z,97.17
2019-03-05T09:16:56.428Z,96.41
2019-03-05T09:22:14.976Z,95.80
2019-03-05T09:27:33.584Z,95.18
2019-03-05T09:32:52.218Z,94.09
2019-03-05T09:38:10.802Z,93.53
2019-03-05T09:43:29.401Z,92.46
2019-03-05T09:48:47.956Z,91.86
2019-03-05T09:54:06.574Z,91.46
2019-03-05T09:59:25.043Z,91.06
2019-03-05T10:04:43.591Z,91.12
2019-03-05T10:10:02.137Z,90.07
2019-03-05T10:15:22.649Z,90.14
2019-03-05T10:20:41.440Z,88.48
2019-03-05T10:26:00.047Z,88.84
2019-03-05T10:31:18.957Z,88.90
2019-03-05T10:36:37.700Z,87.89
2019-03-05T10:41:56.386Z,87.31
2019-03-05T10:47:14.984Z,87.73
2019-03-05T10:52:33.608Z,87.02
2019-03-05T10:57:52.325Z,86.39
2019-03-05T11:03:11.774Z,87.43
2019-03-05T11:08:30.484Z,87.02
2019-03-05T11:13:49.099Z,86.45
2019-03-05T11:19:08.209Z,84.27
2019-03-05T11:24:26.770Z,83.82
2019-03-05T11:29:45.387Z,83.53
2019-03-05T11:35:05.398Z,83.77
2019-03-05T11:40:24.506Z,79.03
2019-03-05T11:45:44.489Z,75.28
2019-03-05T11:51:03.189Z,76.39
2019-03-05T11:56:21.722Z,75.77
2019-03-05T12:01:40.391Z,77.64
2019-03-05T12:06:58.996Z,78.95
2019-03-05T12:12:17.537Z,77.76
2019-03-05T12:17:36.143Z,73.68
2019-03-05T12:22:54.742Z,72.27
2019-03-05T12:28:13.357Z,68.01
2019-03-05T12:33:31.949Z,73.94
2019-03-05T12:38:50.585Z,71.06
2019-03-05T12:44:09.231Z,66.74
2019-03-05T12:49:27.761Z,66.20
2019-03-05T12:54:46.429Z,64.94
2019-03-05T13:00:09.548Z,66.57
2019-03-05T13:05:28.210Z,65.52
2019-03-05T13:10:46.892Z,69.03
2019-03-05T13:16:05.544Z,71.68
2019-03-05T13:21:24.066Z,68.87
2019-03-05T13:26:45.064Z,65.06
2019-03-05T13:32:02.969Z,70.65
2019-03-05T13:37:24.873Z,77.26
2019-03-05T13:42:41.948Z,82.90
2019-03-05T13:48:14.759Z,84.18
2019-03-05T13:54:00.053Z,84.70
2019-03-05T13:59:14.801Z,86.18
2019-03-05T14:04:45.251Z,82.68
2019-03-05T14:10:06.017Z,82.97
2019-03-05T14:15:24.702Z,81.78
2019-03-05T14:20:43.561Z,82.62
2019-03-05T14:26:02.184Z,77.70
2019-03-05T14:31:20.846Z,75.21
2019-03-05T14:36:39.454Z,72.93
2019-03-05T14:41:59.966Z,71.75
2019-03-05T14:47:18.897Z,72.15
2019-03-05T14:52:37.453Z,70.92
2019-03-05T14:57:56.100Z,71.38
2019-03-05T15:03:14.697Z,72.13
2019-03-05T15:08:33.284Z,69.45
2019-03-05T15:13:51.836Z,67.57
2019-03-05T15:19:20.863Z,66.80
2019-03-05T15:24:30.882Z,65.98
2019-03-05T15:29:49.384Z,64.91
2019-03-05T15:35:11.159Z,65.29
2019-03-05T15:40:29.698Z,68.72
2019-03-05T15:45:48.407Z,67.47
2019-03-05T15:51:07.029Z,64.73
2019-03-05T15:56:25.671Z,66.29
2019-03-05T16:01:44.294Z,66.36
2019-03-05T16:07:02.804Z,68.33
2019-03-05T16:12:23.005Z,69.87
2019-03-05T16:17:41.695Z,68.89
2019-03-05T16:23:00.314Z,69.79
2019-03-05T16:28:19.004Z,69.21
2019-03-05T16:33:39.190Z,69.90
2019-03-05T16:39:11.411Z,69.80
2019-03-05T16:44:33.102Z,70.64
2019-03-05T16:49:56.085Z,69.73
2019-03-05T16:55:31.623Z,69.00
2019-03-05T17:01:03.970Z,69.93
2019-03-05T17:06:42.153Z,69.85
2019-03-05T17:12:01.010Z,70.13
2019-03-05T17:17:20.239Z,69.59
2019-03-05T17:22:38.841Z,70.45
2019-03-05T17:27:57.453Z,70.77
2019-03-05T17:33:17.968Z,71.29
2019-03-05T17:38:42.768Z,71.47
2019-03-05T17:44:03.523Z,72.12
2019-03-05T17:49:22.065Z,72.61
2019-03-05T17:54:40.598Z,72.83
2019-03-05T17:59:59.211Z,74.02
2019-03-05T18:05:19.045Z,74.48
2019-03-05T18:10:37.758Z,74.90
2019-03-05T18:15:59.048Z,75.52
2019-03-05T18:21:17.682Z,75.85
2019-03-05T18:26:36.298Z,75.85
2019-03-05T18:31:54.934Z,75.55
2019-03-05T18:37:15.154Z,76.62
2019-03-05T18:42:33.938Z,76.93
2019-03-05T18:47:53.383Z,77.39
2019-03-05T18:53:11.918Z,77.37
2019-03-05T18:58:30.488Z,77.46
2019-03-05T19:03:49.130Z,77.41
2019-03-05T19:09:08.204Z,77.79
2019-03-05T19:14:26.747Z,78.07
2019-03-05T19:19:45.662Z,78.77
2019-03-05T19:25:05.916Z,79.07
2019-03-05T19:30:29.503Z,79.89
2019-03-05T19:35:48.191Z,79.55
2019-03-05T19:41:07.135Z,79.60
2019-03-05T19:46:26.788Z,79.88
2019-03-05T19:51:45.333Z,80.26
2019-03-05T19:57:03.953Z,81.08
2019-03-05T20:02:22.605Z,80.81
2019-03-05T20:07:41.214Z,81.13
2019-03-05T20:13:00.136Z,81.54
2019-03-05T20:18:19.088Z,82.33
2019-03-05T20:23:37.834Z,82.95
2019-03-05T20:28:56.496Z,82.52
2019-03-05T20:34:15.355Z,83.29
2019-03-05T20:39:34.376Z,83.73
2019-03-05T20:44:53.181Z,83.72
2019-03-05T20:50:15.450Z,85.00
2019-03-05T20:55:34.102Z,85.58
2019-03-05T21:00:52.958Z,85.01
2019-03-05T21:06:11.993Z,84.54
2019-03-05T21:11:30.773Z,85.16
2019-03-05T21:16:49.323Z,85.21
2019-03-05T21:22:08.016Z,85.02
2019-03-05T21:27:26.695Z,85.09
2019-03-05T21:32:47.583Z,84.88
2019-03-05T21:38:06.352Z,85.94
2019-03-05T21:43:26.518Z,86.49
2019-03-05T21:48:45.145Z,86.89
2019-03-05T21:54:03.864Z,85.66
2019-03-05T21:59:23.323Z,86.15
2019-03-05T22:04:42.073Z,86.03
2019-03-05T22:10:00.929Z,86.63
2019-03-05T22:15:27.474Z,87.68
2019-03-05T22:20:46.219Z,88.45
2019-03-05T22:26:04.865Z,89.44
2019-03-05T22:31:26.918Z,89.83
2019-03-05T22:36:45.816Z,90.08
2019-03-05T22:42:04.452Z,90.17
2019-03-05T22:47:23.172Z,90.29
2019-03-05T22:52:42.132Z,89.84
2019-03-05T22:58:01.207Z,89.19
2019-03-05T23:03:24.969Z,88.94
2019-03-05T23:08:43.913Z,88.47
2019-03-05T23:14:02.645Z,87.90
2019-03-05T23:19:21.266Z,88.41
2019-03-05T23:24:40.074Z,88.37
2019-03-05T23:29:58.989Z,87.67
2019-03-05T23:35:17.591Z,87.77
2019-03-05T23:40:36.221Z,87.61
2019-03-05T23:45:55.025Z,87.56
2019-03-05T23:51:13.631Z,87.70
2019-03-05T23:56:32.177Z,88.06
